sensor_id;sensor_type;location;lat;lon;timestamp;P1;durP1;ratioP1;P2;durP2;ratioP2
4391;SDS011;2210;51.938;8.488;2022-12-29T00:00:11;1.63;;;1.20;;
4391;SDS011;2210;51.938;8.488;2022-12-29T00:04:15;1.93;;;1.40;;
4391;SDS011;2210;51.938;8.488;2022-12-29T00:08:33;1.17;;;1.00;;
4391;SDS011;2210;51.938;8.488;2022-12-29T00:12:39;1.63;;;1.00;;
4391;SDS011;2210;51.938;8.488;2022-12-29T00:17:33;1.07;;;1.07;;
4391;SDS011;2210;51.938;8.488;2022-12-29T00:21:39;1.00;;;1.00;;
4391;SDS011;2210;51.938;8.488;2022-12-29T00:26:08;0.90;;;0.90;;
4391;SDS011;2210;51.938;8.488;2022-12-29T00:30:34;1.00;;;1.00;;
4391;SDS011;2210;51.938;8.488;2022-12-29T00:34:53;0.80;;;0.80;;
4391;SDS011;2210;51.938;8.488;2022-12-29T00:39:10;0.93;;;0.90;;
4391;SDS011;2210;51.938;8.488;2022-12-29T00:43:32;1.00;;;1.00;;
4391;SDS011;2210;51.938;8.488;2022-12-29T00:47:51;1.07;;;0.83;;
4391;SDS011;2210;51.938;8.488;2022-12-29T00:51:51;3.05;;;1.08;;
4391;SDS011;2210;51.938;8.488;2022-12-29T00:55:52;1.20;;;1.10;;
4391;SDS011;2210;51.938;8.488;2022-12-29T00:59:53;0.80;;;0.80;;
4391;SDS011;2210;51.938;8.488;2022-12-29T01:03:53;0.87;;;0.87;;
4391;SDS011;2210;51.938;8.488;2022-12-29T01:07:53;1.02;;;0.93;;
4391;SDS011;2210;51.938;8.488;2022-12-29T01:11:54;1.80;;;1.00;;
4391;SDS011;2210;51.938;8.488;2022-12-29T01:15:55;0.83;;;0.83;;
4391;SDS011;2210;51.938;8.488;2022-12-29T01:20:11;0.83;;;0.80;;
4391;SDS011;2210;51.938;8.488;2022-12-29T01:24:15;0.87;;;0.87;;
4391;SDS011;2210;51.938;8.488;2022-12-29T01:28:16;0.80;;;0.70;;
4391;SDS011;2210;51.938;8.488;2022-12-29T01:32:16;0.90;;;0.90;;
4391;SDS011;2210;51.938;8.488;2022-12-29T01:36:17;0.93;;;0.90;;
4391;SDS011;2210;51.938;8.488;2022-12-29T01:40:18;0.80;;;0.80;;
4391;SDS011;2210;51.938;8.488;2022-12-29T01:48:50;1.43;;;0.90;;
4391;SDS011;2210;51.938;8.488;2022-12-29T01:53:00;0.80;;;0.70;;
4391;SDS011;2210;51.938;8.488;2022-12-29T01:57:07;1.00;;;0.70;;
4391;SDS011;2210;51.938;8.488;2022-12-29T02:01:14;1.50;;;0.60;;
4391;SDS011;2210;51.938;8.488;2022-12-29T02:05:25;0.60;;;0.60;;
4391;SDS011;2210;51.938;8.488;2022-12-29T02:09:35;0.90;;;0.73;;
4391;SDS011;2210;51.938;8.488;2022-12-29T02:13:41;0.90;;;0.80;;
4391;SDS011;2210;51.938;8.488;2022-12-29T02:31:57;0.80;;;0.80;;
4391;SDS011;2210;51.938;8.488;2022-12-29T02:36:15;0.70;;;0.70;;
4391;SDS011;2210;51.938;8.488;2022-12-29T02:40:37;1.53;;;0.60;;
4391;SDS011;2210;51.938;8.488;2022-12-29T02:49:36;0.63;;;0.63;;
4391;SDS011;2210;51.938;8.488;2022-12-29T02:53:57;0.80;;;0.60;;
4391;SDS011;2210;51.938;8.488;2022-12-29T02:58:23;0.90;;;0.53;;
4391;SDS011;2210;51.938;8.488;2022-12-29T03:11:43;0.90;;;0.50;;
4391;SDS011;2210;51.938;8.488;2022-12-29T03:16:20;0.53;;;0.53;;
4391;SDS011;2210;51.938;8.488;2022-12-29T03:20:25;0.53;;;0.53;;
4391;SDS011;2210;51.938;8.488;2022-12-29T03:24:32;0.50;;;0.50;;
4391;SDS011;2210;51.938;8.488;2022-12-29T03:28:42;0.90;;;0.60;;
4391;SDS011;2210;51.938;8.488;2022-12-29T03:32:54;0.53;;;0.53;;
4391;SDS011;2210;51.938;8.488;2022-12-29T03:37:02;0.70;;;0.60;;
4391;SDS011;2210;51.938;8.488;2022-12-29T03:41:11;0.60;;;0.60;;
4391;SDS011;2210;51.938;8.488;2022-12-29T03:45:15;0.50;;;0.50;;
4391;SDS011;2210;51.938;8.488;2022-12-29T03:49:16;0.50;;;0.50;;
4391;SDS011;2210;51.938;8.488;2022-12-29T03:53:19;0.50;;;0.50;;
4391;SDS011;2210;51.938;8.488;2022-12-29T03:57:19;0.70;;;0.57;;
4391;SDS011;2210;51.938;8.488;2022-12-29T04:01:22;1.77;;;0.90;;
4391;SDS011;2210;51.938;8.488;2022-12-29T04:05:23;0.90;;;0.50;;
4391;SDS011;2210;51.938;8.488;2022-12-29T04:17:36;0.50;;;0.50;;
4391;SDS011;2210;51.938;8.488;2022-12-29T04:21:36;0.50;;;0.50;;
4391;SDS011;2210;51.938;8.488;2022-12-29T04:25:36;0.53;;;0.50;;
4391;SDS011;2210;51.938;8.488;2022-12-29T04:29:43;0.68;;;0.68;;
4391;SDS011;2210;51.938;8.488;2022-12-29T04:33:43;0.60;;;0.50;;
4391;SDS011;2210;51.938;8.488;2022-12-29T04:37:50;0.53;;;0.53;;
4391;SDS011;2210;51.938;8.488;2022-12-29T04:41:53;0.77;;;0.63;;
4391;SDS011;2210;51.938;8.488;2022-12-29T04:45:53;0.70;;;0.60;;
4391;SDS011;2210;51.938;8.488;2022-12-29T04:49:57;0.60;;;0.60;;
4391;SDS011;2210;51.938;8.488;2022-12-29T04:54:00;0.67;;;0.67;;
4391;SDS011;2210;51.938;8.488;2022-12-29T04:58:12;1.13;;;0.60;;
4391;SDS011;2210;51.938;8.488;2022-12-29T05:02:12;0.93;;;0.70;;
4391;SDS011;2210;51.938;8.488;2022-12-29T05:06:19;0.80;;;0.60;;
4391;SDS011;2210;51.938;8.488;2022-12-29T05:10:22;0.70;;;0.63;;
4391;SDS011;2210;51.938;8.488;2022-12-29T05:14:28;0.70;;;0.70;;
4391;SDS011;2210;51.938;8.488;2022-12-29T05:18:28;0.67;;;0.67;;
4391;SDS011;2210;51.938;8.488;2022-12-29T05:22:32;0.60;;;0.60;;
4391;SDS011;2210;51.938;8.488;2022-12-29T05:26:41;1.13;;;0.60;;
4391;SDS011;2210;51.938;8.488;2022-12-29T05:30:42;0.80;;;0.57;;
4391;SDS011;2210;51.938;8.488;2022-12-29T05:34:45;0.50;;;0.50;;
4391;SDS011;2210;51.938;8.488;2022-12-29T05:38:48;0.50;;;0.50;;
4391;SDS011;2210;51.938;8.488;2022-12-29T05:42:57;2.10;;;0.60;;
4391;SDS011;2210;51.938;8.488;2022-12-29T05:47:03;0.60;;;0.60;;
4391;SDS011;2210;51.938;8.488;2022-12-29T05:51:12;0.70;;;0.70;;
4391;SDS011;2210;51.938;8.488;2022-12-29T05:55:24;0.97;;;0.53;;
4391;SDS011;2210;51.938;8.488;2022-12-29T05:59:24;0.60;;;0.60;;
4391;SDS011;2210;51.938;8.488;2022-12-29T06:03:25;0.65;;;0.50;;
4391;SDS011;2210;51.938;8.488;2022-12-29T06:07:26;0.57;;;0.57;;
4391;SDS011;2210;51.938;8.488;2022-12-29T06:11:26;1.17;;;0.70;;
4391;SDS011;2210;51.938;8.488;2022-12-29T06:15:29;0.95;;;0.70;;
4391;SDS011;2210;51.938;8.488;2022-12-29T06:19:29;0.60;;;0.60;;
4391;SDS011;2210;51.938;8.488;2022-12-29T06:23:39;0.70;;;0.60;;
4391;SDS011;2210;51.938;8.488;2022-12-29T06:27:39;1.67;;;0.60;;
4391;SDS011;2210;51.938;8.488;2022-12-29T06:31:39;0.60;;;0.60;;
4391;SDS011;2210;51.938;8.488;2022-12-29T06:35:49;0.70;;;0.70;;
4391;SDS011;2210;51.938;8.488;2022-12-29T06:40:01;0.80;;;0.70;;
4391;SDS011;2210;51.938;8.488;2022-12-29T06:44:02;3.47;;;0.80;;
4391;SDS011;2210;51.938;8.488;2022-12-29T06:48:02;0.87;;;0.60;;
4391;SDS011;2210;51.938;8.488;2022-12-29T06:52:02;1.20;;;0.60;;
4391;SDS011;2210;51.938;8.488;2022-12-29T06:56:04;2.00;;;0.80;;
4391;SDS011;2210;51.938;8.488;2022-12-29T07:00:08;1.73;;;0.90;;
4391;SDS011;2210;51.938;8.488;2022-12-29T07:04:18;1.53;;;0.97;;
4391;SDS011;2210;51.938;8.488;2022-12-29T07:08:24;0.80;;;0.60;;
4391;SDS011;2210;51.938;8.488;2022-12-29T07:12:25;1.90;;;0.70;;
4391;SDS011;2210;51.938;8.488;2022-12-29T07:16:25;1.47;;;0.70;;
4391;SDS011;2210;51.938;8.488;2022-12-29T07:20:25;0.63;;;0.50;;
4391;SDS011;2210;51.938;8.488;2022-12-29T07:24:32;2.83;;;0.60;;
4391;SDS011;2210;51.938;8.488;2022-12-29T07:28:41;1.90;;;0.70;;
4391;SDS011;2210;51.938;8.488;2022-12-29T07:32:41;1.23;;;0.90;;
4391;SDS011;2210;51.938;8.488;2022-12-29T07:36:54;1.13;;;1.03;;
4391;SDS011;2210;51.938;8.488;2022-12-29T07:41:00;1.03;;;0.90;;
4391;SDS011;2210;51.938;8.488;2022-12-29T07:45:01;2.47;;;1.27;;
4391;SDS011;2210;51.938;8.488;2022-12-29T07:49:01;1.10;;;0.80;;
4391;SDS011;2210;51.938;8.488;2022-12-29T07:53:01;2.15;;;0.80;;
4391;SDS011;2210;51.938;8.488;2022-12-29T07:57:02;0.70;;;0.70;;
4391;SDS011;2210;51.938;8.488;2022-12-29T08:01:09;0.97;;;0.87;;
4391;SDS011;2210;51.938;8.488;2022-12-29T08:14:16;1.13;;;1.03;;
4391;SDS011;2210;51.938;8.488;2022-12-29T08:26:53;1.37;;;1.07;;
4391;SDS011;2210;51.938;8.488;2022-12-29T08:30:57;1.50;;;0.80;;
4391;SDS011;2210;51.938;8.488;2022-12-29T08:35:02;1.93;;;0.90;;
4391;SDS011;2210;51.938;8.488;2022-12-29T08:39:02;0.83;;;0.83;;
4391;SDS011;2210;51.938;8.488;2022-12-29T08:43:02;1.43;;;0.80;;
4391;SDS011;2210;51.938;8.488;2022-12-29T08:47:06;0.80;;;0.80;;
4391;SDS011;2210;51.938;8.488;2022-12-29T08:51:06;1.30;;;0.90;;
4391;SDS011;2210;51.938;8.488;2022-12-29T08:55:16;1.37;;;0.90;;
4391;SDS011;2210;51.938;8.488;2022-12-29T08:59:19;9.93;;;2.23;;
4391;SDS011;2210;51.938;8.488;2022-12-29T09:03:23;6.03;;;1.20;;
4391;SDS011;2210;51.938;8.488;2022-12-29T09:07:24;1.60;;;1.00;;
4391;SDS011;2210;51.938;8.488;2022-12-29T09:11:24;1.40;;;1.20;;
4391;SDS011;2210;51.938;8.488;2022-12-29T09:15:25;1.20;;;1.10;;
4391;SDS011;2210;51.938;8.488;2022-12-29T09:19:25;2.63;;;1.57;;
4391;SDS011;2210;51.938;8.488;2022-12-29T09:23:26;1.50;;;1.40;;
4391;SDS011;2210;51.938;8.488;2022-12-29T09:27:30;4.50;;;1.20;;
4391;SDS011;2210;51.938;8.488;2022-12-29T09:31:36;1.47;;;1.27;;
4391;SDS011;2210;51.938;8.488;2022-12-29T09:35:36;3.03;;;1.17;;
4391;SDS011;2210;51.938;8.488;2022-12-29T09:39:39;1.23;;;0.98;;
4391;SDS011;2210;51.938;8.488;2022-12-29T09:43:43;1.53;;;1.10;;
4391;SDS011;2210;51.938;8.488;2022-12-29T09:48:00;1.57;;;1.00;;
4391;SDS011;2210;51.938;8.488;2022-12-29T09:52:03;5.80;;;1.50;;
4391;SDS011;2210;51.938;8.488;2022-12-29T09:56:07;1.30;;;1.00;;
4391;SDS011;2210;51.938;8.488;2022-12-29T10:00:16;2.83;;;1.23;;
4391;SDS011;2210;51.938;8.488;2022-12-29T10:04:18;2.90;;;1.30;;
4391;SDS011;2210;51.938;8.488;2022-12-29T10:17:09;1.23;;;0.90;;
4391;SDS011;2210;51.938;8.488;2022-12-29T10:25:56;2.23;;;1.50;;
4391;SDS011;2210;51.938;8.488;2022-12-29T10:30:03;5.63;;;1.20;;
4391;SDS011;2210;51.938;8.488;2022-12-29T10:34:13;6.00;;;1.60;;
4391;SDS011;2210;51.938;8.488;2022-12-29T10:42:54;6.60;;;1.20;;
4391;SDS011;2210;51.938;8.488;2022-12-29T10:47:04;3.03;;;1.27;;
4391;SDS011;2210;51.938;8.488;2022-12-29T10:51:07;2.33;;;1.10;;
4391;SDS011;2210;51.938;8.488;2022-12-29T10:59:35;2.97;;;1.20;;
4391;SDS011;2210;51.938;8.488;2022-12-29T11:07:58;2.80;;;0.90;;
4391;SDS011;2210;51.938;8.488;2022-12-29T11:16:32;2.53;;;1.37;;
4391;SDS011;2210;51.938;8.488;2022-12-29T11:20:40;3.60;;;2.57;;
4391;SDS011;2210;51.938;8.488;2022-12-29T11:24:45;4.00;;;2.07;;
4391;SDS011;2210;51.938;8.488;2022-12-29T11:33:31;3.63;;;1.67;;
4391;SDS011;2210;51.938;8.488;2022-12-29T11:37:36;5.47;;;2.93;;
4391;SDS011;2210;51.938;8.488;2022-12-29T11:41:46;3.20;;;2.30;;
4391;SDS011;2210;51.938;8.488;2022-12-29T11:45:52;6.50;;;3.10;;
4391;SDS011;2210;51.938;8.488;2022-12-29T11:49:54;6.10;;;3.67;;
4391;SDS011;2210;51.938;8.488;2022-12-29T11:53:58;3.83;;;2.63;;
4391;SDS011;2210;51.938;8.488;2022-12-29T11:58:05;3.97;;;1.53;;
4391;SDS011;2210;51.938;8.488;2022-12-29T12:02:13;5.60;;;1.07;;
4391;SDS011;2210;51.938;8.488;2022-12-29T12:06:16;2.70;;;1.03;;
4391;SDS011;2210;51.938;8.488;2022-12-29T12:10:27;4.67;;;1.37;;
4391;SDS011;2210;51.938;8.488;2022-12-29T12:14:50;2.40;;;1.20;;
4391;SDS011;2210;51.938;8.488;2022-12-29T12:19:04;2.20;;;1.00;;
4391;SDS011;2210;51.938;8.488;2022-12-29T12:23:36;4.53;;;1.20;;
4391;SDS011;2210;51.938;8.488;2022-12-29T12:37:02;3.87;;;1.20;;
4391;SDS011;2210;51.938;8.488;2022-12-29T12:45:55;4.80;;;1.20;;
4391;SDS011;2210;51.938;8.488;2022-12-29T12:50:08;2.80;;;1.23;;
4391;SDS011;2210;51.938;8.488;2022-12-29T12:59:01;4.27;;;1.23;;
4391;SDS011;2210;51.938;8.488;2022-12-29T13:12:16;5.40;;;1.47;;
4391;SDS011;2210;51.938;8.488;2022-12-29T13:20:53;9.37;;;1.43;;
4391;SDS011;2210;51.938;8.488;2022-12-29T13:25:07;5.10;;;1.50;;
4391;SDS011;2210;51.938;8.488;2022-12-29T13:29:30;3.73;;;1.87;;
4391;SDS011;2210;51.938;8.488;2022-12-29T13:38:33;3.00;;;1.30;;
4391;SDS011;2210;51.938;8.488;2022-12-29T13:42:37;4.20;;;1.40;;
4391;SDS011;2210;51.938;8.488;2022-12-29T13:46:43;5.27;;;1.93;;
4391;SDS011;2210;51.938;8.488;2022-12-29T13:50:47;5.17;;;2.47;;
4391;SDS011;2210;51.938;8.488;2022-12-29T13:55:05;4.43;;;1.20;;
4391;SDS011;2210;51.938;8.488;2022-12-29T14:03:54;2.80;;;1.13;;
4391;SDS011;2210;51.938;8.488;2022-12-29T14:08:05;4.00;;;1.30;;
4391;SDS011;2210;51.938;8.488;2022-12-29T14:12:31;9.63;;;1.50;;
4391;SDS011;2210;51.938;8.488;2022-12-29T14:16:41;3.10;;;1.70;;
4391;SDS011;2210;51.938;8.488;2022-12-29T14:24:56;9.73;;;1.73;;
4391;SDS011;2210;51.938;8.488;2022-12-29T14:29:00;2.23;;;1.10;;
4391;SDS011;2210;51.938;8.488;2022-12-29T14:33:38;3.50;;;1.43;;
4391;SDS011;2210;51.938;8.488;2022-12-29T14:37:38;3.13;;;1.30;;
4391;SDS011;2210;51.938;8.488;2022-12-29T14:41:41;7.23;;;1.20;;
4391;SDS011;2210;51.938;8.488;2022-12-29T14:45:41;4.17;;;1.40;;
4391;SDS011;2210;51.938;8.488;2022-12-29T14:49:42;6.30;;;1.77;;
4391;SDS011;2210;51.938;8.488;2022-12-29T14:53:49;4.10;;;1.50;;
4391;SDS011;2210;51.938;8.488;2022-12-29T14:57:57;2.10;;;1.37;;
4391;SDS011;2210;51.938;8.488;2022-12-29T15:02:05;8.30;;;2.20;;
4391;SDS011;2210;51.938;8.488;2022-12-29T15:06:15;3.77;;;1.40;;
4391;SDS011;2210;51.938;8.488;2022-12-29T15:10:21;4.53;;;1.73;;
4391;SDS011;2210;51.938;8.488;2022-12-29T15:14:34;4.23;;;1.43;;
4391;SDS011;2210;51.938;8.488;2022-12-29T15:18:49;3.43;;;1.83;;
4391;SDS011;2210;51.938;8.488;2022-12-29T15:22:51;3.83;;;1.37;;
4391;SDS011;2210;51.938;8.488;2022-12-29T15:26:58;2.20;;;1.07;;
4391;SDS011;2210;51.938;8.488;2022-12-29T15:31:04;4.37;;;2.30;;
4391;SDS011;2210;51.938;8.488;2022-12-29T15:39:30;6.17;;;1.33;;
4391;SDS011;2210;51.938;8.488;2022-12-29T15:48:14;5.70;;;1.30;;
4391;SDS011;2210;51.938;8.488;2022-12-29T15:52:22;4.40;;;1.23;;
4391;SDS011;2210;51.938;8.488;2022-12-29T15:56:24;2.20;;;1.40;;
4391;SDS011;2210;51.938;8.488;2022-12-29T16:00:29;3.73;;;1.73;;
4391;SDS011;2210;51.938;8.488;2022-12-29T16:04:31;7.43;;;2.00;;
4391;SDS011;2210;51.938;8.488;2022-12-29T16:08:34;3.57;;;1.50;;
4391;SDS011;2210;51.938;8.488;2022-12-29T16:12:40;3.17;;;1.47;;
4391;SDS011;2210;51.938;8.488;2022-12-29T16:16:41;4.10;;;1.20;;
4391;SDS011;2210;51.938;8.488;2022-12-29T16:20:45;3.43;;;1.70;;
4391;SDS011;2210;51.938;8.488;2022-12-29T16:24:46;5.27;;;2.70;;
4391;SDS011;2210;51.938;8.488;2022-12-29T16:37:38;5.00;;;3.37;;
4391;SDS011;2210;51.938;8.488;2022-12-29T16:41:39;7.50;;;3.40;;
4391;SDS011;2210;51.938;8.488;2022-12-29T16:50:10;5.57;;;2.03;;
4391;SDS011;2210;51.938;8.488;2022-12-29T16:54:28;3.80;;;2.00;;
4391;SDS011;2210;51.938;8.488;2022-12-29T16:58:35;4.33;;;1.30;;
4391;SDS011;2210;51.938;8.488;2022-12-29T17:02:35;5.77;;;1.63;;
4391;SDS011;2210;51.938;8.488;2022-12-29T17:06:44;2.60;;;1.23;;
4391;SDS011;2210;51.938;8.488;2022-12-29T17:10:44;3.30;;;1.27;;
4391;SDS011;2210;51.938;8.488;2022-12-29T17:15:04;3.43;;;1.20;;
4391;SDS011;2210;51.938;8.488;2022-12-29T17:19:15;3.10;;;1.43;;
4391;SDS011;2210;51.938;8.488;2022-12-29T17:23:17;5.37;;;1.40;;
4391;SDS011;2210;51.938;8.488;2022-12-29T17:27:40;3.73;;;1.87;;
4391;SDS011;2210;51.938;8.488;2022-12-29T17:31:44;2.47;;;1.23;;
4391;SDS011;2210;51.938;8.488;2022-12-29T17:35:44;1.60;;;1.23;;
4391;SDS011;2210;51.938;8.488;2022-12-29T17:39:51;4.13;;;1.67;;
4391;SDS011;2210;51.938;8.488;2022-12-29T17:43:54;2.70;;;1.30;;
4391;SDS011;2210;51.938;8.488;2022-12-29T17:47:54;4.10;;;1.50;;
4391;SDS011;2210;51.938;8.488;2022-12-29T17:51:55;4.73;;;1.60;;
4391;SDS011;2210;51.938;8.488;2022-12-29T17:55:59;3.23;;;1.20;;
4391;SDS011;2210;51.938;8.488;2022-12-29T18:00:03;2.07;;;1.30;;
4391;SDS011;2210;51.938;8.488;2022-12-29T18:04:08;6.80;;;1.37;;
4391;SDS011;2210;51.938;8.488;2022-12-29T18:08:11;1.67;;;1.10;;
4391;SDS011;2210;51.938;8.488;2022-12-29T18:12:19;1.97;;;1.40;;
4391;SDS011;2210;51.938;8.488;2022-12-29T18:16:33;1.70;;;1.10;;
4391;SDS011;2210;51.938;8.488;2022-12-29T18:20:40;3.73;;;1.37;;
4391;SDS011;2210;51.938;8.488;2022-12-29T18:24:42;2.60;;;1.10;;
4391;SDS011;2210;51.938;8.488;2022-12-29T18:28:43;2.93;;;1.63;;
4391;SDS011;2210;51.938;8.488;2022-12-29T18:32:49;2.90;;;1.20;;
4391;SDS011;2210;51.938;8.488;2022-12-29T18:36:49;7.00;;;1.60;;
4391;SDS011;2210;51.938;8.488;2022-12-29T18:40:51;5.27;;;1.30;;
4391;SDS011;2210;51.938;8.488;2022-12-29T18:44:57;4.23;;;1.10;;
4391;SDS011;2210;51.938;8.488;2022-12-29T18:48:58;2.63;;;1.10;;
4391;SDS011;2210;51.938;8.488;2022-12-29T18:52:58;1.80;;;1.05;;
4391;SDS011;2210;51.938;8.488;2022-12-29T18:56:58;5.00;;;1.10;;
4391;SDS011;2210;51.938;8.488;2022-12-29T19:00:59;2.77;;;1.27;;
4391;SDS011;2210;51.938;8.488;2022-12-29T19:04:59;2.40;;;1.03;;
4391;SDS011;2210;51.938;8.488;2022-12-29T19:09:02;4.53;;;1.27;;
4391;SDS011;2210;51.938;8.488;2022-12-29T19:13:02;2.00;;;1.30;;
4391;SDS011;2210;51.938;8.488;2022-12-29T19:17:03;2.10;;;1.10;;
4391;SDS011;2210;51.938;8.488;2022-12-29T19:21:07;1.70;;;0.85;;
4391;SDS011;2210;51.938;8.488;2022-12-29T19:25:16;2.17;;;1.00;;
4391;SDS011;2210;51.938;8.488;2022-12-29T19:29:16;0.90;;;0.90;;
4391;SDS011;2210;51.938;8.488;2022-12-29T19:33:16;1.53;;;1.00;;
4391;SDS011;2210;51.938;8.488;2022-12-29T19:37:17;1.17;;;0.83;;
4391;SDS011;2210;51.938;8.488;2022-12-29T19:41:17;0.88;;;0.85;;
4391;SDS011;2210;51.938;8.488;2022-12-29T19:45:17;1.80;;;1.10;;
4391;SDS011;2210;51.938;8.488;2022-12-29T19:49:19;1.23;;;1.00;;
4391;SDS011;2210;51.938;8.488;2022-12-29T19:53:32;4.97;;;1.50;;
4391;SDS011;2210;51.938;8.488;2022-12-29T19:57:36;3.03;;;1.00;;
4391;SDS011;2210;51.938;8.488;2022-12-29T20:01:46;2.40;;;1.20;;
4391;SDS011;2210;51.938;8.488;2022-12-29T20:05:47;1.40;;;1.07;;
4391;SDS011;2210;51.938;8.488;2022-12-29T20:09:48;2.80;;;1.20;;
4391;SDS011;2210;51.938;8.488;2022-12-29T20:13:48;2.83;;;1.30;;
4391;SDS011;2210;51.938;8.488;2022-12-29T20:17:52;3.13;;;1.17;;
4391;SDS011;2210;51.938;8.488;2022-12-29T20:21:52;5.70;;;1.40;;
4391;SDS011;2210;51.938;8.488;2022-12-29T20:25:55;1.40;;;1.30;;
4391;SDS011;2210;51.938;8.488;2022-12-29T20:29:57;1.30;;;1.00;;
4391;SDS011;2210;51.938;8.488;2022-12-29T20:34:00;4.07;;;1.80;;
4391;SDS011;2210;51.938;8.488;2022-12-29T20:38:07;7.13;;;1.97;;
4391;SDS011;2210;51.938;8.488;2022-12-29T20:42:10;3.40;;;1.80;;
4391;SDS011;2210;51.938;8.488;2022-12-29T20:46:11;2.90;;;1.60;;
4391;SDS011;2210;51.938;8.488;2022-12-29T20:50:13;7.40;;;2.00;;
4391;SDS011;2210;51.938;8.488;2022-12-29T20:54:13;3.92;;;1.55;;
4391;SDS011;2210;51.938;8.488;2022-12-29T20:58:14;5.20;;;1.63;;
4391;SDS011;2210;51.938;8.488;2022-12-29T21:02:21;4.90;;;1.60;;
4391;SDS011;2210;51.938;8.488;2022-12-29T21:06:21;10.70;;;2.07;;
4391;SDS011;2210;51.938;8.488;2022-12-29T21:10:22;10.33;;;2.30;;
4391;SDS011;2210;51.938;8.488;2022-12-29T21:14:26;3.97;;;1.60;;
4391;SDS011;2210;51.938;8.488;2022-12-29T21:18:30;5.70;;;2.37;;
4391;SDS011;2210;51.938;8.488;2022-12-29T21:22:30;4.47;;;1.93;;
4391;SDS011;2210;51.938;8.488;2022-12-29T21:26:37;6.65;;;2.08;;
4391;SDS011;2210;51.938;8.488;2022-12-29T21:30:37;3.97;;;2.03;;
4391;SDS011;2210;51.938;8.488;2022-12-29T21:34:50;3.57;;;1.80;;
4391;SDS011;2210;51.938;8.488;2022-12-29T21:38:57;4.07;;;1.80;;
4391;SDS011;2210;51.938;8.488;2022-12-29T21:43:04;5.87;;;2.00;;
4391;SDS011;2210;51.938;8.488;2022-12-29T21:47:10;7.13;;;2.00;;
4391;SDS011;2210;51.938;8.488;2022-12-29T21:51:17;4.23;;;1.70;;
4391;SDS011;2210;51.938;8.488;2022-12-29T21:55:48;4.00;;;1.70;;
4391;SDS011;2210;51.938;8.488;2022-12-29T21:59:52;12.50;;;2.40;;
4391;SDS011;2210;51.938;8.488;2022-12-29T22:04:12;6.43;;;2.23;;
4391;SDS011;2210;51.938;8.488;2022-12-29T22:08:37;6.47;;;2.00;;
4391;SDS011;2210;51.938;8.488;2022-12-29T22:13:06;4.10;;;1.80;;
4391;SDS011;2210;51.938;8.488;2022-12-29T22:17:15;7.20;;;2.60;;
4391;SDS011;2210;51.938;8.488;2022-12-29T22:21:15;4.73;;;1.57;;
4391;SDS011;2210;51.938;8.488;2022-12-29T22:25:22;7.03;;;2.27;;
4391;SDS011;2210;51.938;8.488;2022-12-29T22:29:26;7.27;;;2.23;;
4391;SDS011;2210;51.938;8.488;2022-12-29T22:33:32;5.57;;;1.67;;
4391;SDS011;2210;51.938;8.488;2022-12-29T22:37:36;8.00;;;2.03;;
4391;SDS011;2210;51.938;8.488;2022-12-29T22:41:40;6.97;;;1.80;;
4391;SDS011;2210;51.938;8.488;2022-12-29T22:45:44;9.50;;;2.33;;
4391;SDS011;2210;51.938;8.488;2022-12-29T22:49:47;3.90;;;1.53;;
4391;SDS011;2210;51.938;8.488;2022-12-29T22:53:48;5.63;;;1.60;;
4391;SDS011;2210;51.938;8.488;2022-12-29T22:57:48;5.80;;;2.10;;
4391;SDS011;2210;51.938;8.488;2022-12-29T23:01:55;8.87;;;2.13;;
4391;SDS011;2210;51.938;8.488;2022-12-29T23:06:04;5.53;;;1.90;;
4391;SDS011;2210;51.938;8.488;2022-12-29T23:10:18;5.27;;;1.70;;
4391;SDS011;2210;51.938;8.488;2022-12-29T23:14:21;5.73;;;1.70;;
4391;SDS011;2210;51.938;8.488;2022-12-29T23:18:22;3.90;;;2.20;;
4391;SDS011;2210;51.938;8.488;2022-12-29T23:22:22;5.20;;;1.70;;
4391;SDS011;2210;51.938;8.488;2022-12-29T23:26:32;4.20;;;1.60;;
4391;SDS011;2210;51.938;8.488;2022-12-29T23:30:43;5.60;;;1.93;;
4391;SDS011;2210;51.938;8.488;2022-12-29T23:34:55;11.03;;;1.97;;
4391;SDS011;2210;51.938;8.488;2022-12-29T23:38:56;4.00;;;1.77;;
4391;SDS011;2210;51.938;8.488;2022-12-29T23:43:02;4.77;;;1.60;;
4391;SDS011;2210;51.938;8.488;2022-12-29T23:47:02;6.27;;;2.13;;
4391;SDS011;2210;51.938;8.488;2022-12-29T23:51:03;5.13;;;1.80;;
4391;SDS011;2210;51.938;8.488;2022-12-29T23:55:07;4.37;;;1.60;;
4391;SDS011;2210;51.938;8.488;2022-12-29T23:59:20;5.17;;;2.00;;
